sensor_id;sensor_type;location;lat;lon;timestamp;temperature;humidity
52965;DHT22;42923;53.220;6.528;2024-03-02T00:01:11;8.10;99.90
52965;DHT22;42923;53.220;6.528;2024-03-02T00:03:37;8.00;99.90
52965;DHT22;42923;53.220;6.528;2024-03-02T00:06:04;8.00;99.90
52965;DHT22;42923;53.220;6.528;2024-03-02T00:08:29;8.00;99.90
52965;DHT22;42923;53.220;6.528;2024-03-02T00:10:59;8.00;99.90
52965;DHT22;42923;53.220;6.528;2024-03-02T00:13:25;8.00;99.90
52965;DHT22;42923;53.220;6.528;2024-03-02T00:15:56;8.00;99.90
52965;DHT22;42923;53.220;6.528;2024-03-02T00:18:31;8.20;99.90
52965;DHT22;42923;53.220;6.528;2024-03-02T00:20:58;7.90;99.90
52965;DHT22;42923;53.220;6.528;2024-03-02T00:23:27;7.90;99.90
52965;DHT22;42923;53.220;6.528;2024-03-02T00:25:57;7.80;99.90
52965;DHT22;42923;53.220;6.528;2024-03-02T00:28:31;7.80;99.90
52965;DHT22;42923;53.220;6.528;2024-03-02T00:31:07;7.70;99.90
52965;DHT22;42923;53.220;6.528;2024-03-02T00:33:44;7.70;99.90
52965;DHT22;42923;53.220;6.528;2024-03-02T00:36:11;7.70;99.90
52965;DHT22;42923;53.220;6.528;2024-03-02T00:38:56;7.70;99.90
52965;DHT22;42923;53.220;6.528;2024-03-02T00:41:27;7.70;99.90
52965;DHT22;42923;53.220;6.528;2024-03-02T00:46:26;7.80;99.90
52965;DHT22;42923;53.220;6.528;2024-03-02T00:51:18;7.80;99.90
52965;DHT22;42923;53.220;6.528;2024-03-02T00:53:44;7.80;99.90
52965;DHT22;42923;53.220;6.528;2024-03-02T00:56:11;7.90;99.90
52965;DHT22;42923;53.220;6.528;2024-03-02T00:58:38;7.90;99.90
52965;DHT22;42923;53.220;6.528;2024-03-02T01:01:03;7.90;99.90
52965;DHT22;42923;53.220;6.528;2024-03-02T01:03:30;8.00;99.90
52965;DHT22;42923;53.220;6.528;2024-03-02T01:05:56;8.00;99.90
52965;DHT22;42923;53.220;6.528;2024-03-02T01:08:22;8.10;99.90
52965;DHT22;42923;53.220;6.528;2024-03-02T01:10:48;9.00;99.90
52965;DHT22;42923;53.220;6.528;2024-03-02T01:13:13;8.10;99.90
52965;DHT22;42923;53.220;6.528;2024-03-02T01:15:39;8.40;99.90
52965;DHT22;42923;53.220;6.528;2024-03-02T01:18:05;8.10;99.90
52965;DHT22;42923;53.220;6.528;2024-03-02T01:20:31;9.00;99.90
52965;DHT22;42923;53.220;6.528;2024-03-02T01:22:56;8.00;99.90
52965;DHT22;42923;53.220;6.528;2024-03-02T01:25:22;8.00;99.90
52965;DHT22;42923;53.220;6.528;2024-03-02T01:27:48;8.00;99.90
52965;DHT22;42923;53.220;6.528;2024-03-02T01:30:14;8.00;99.90
52965;DHT22;42923;53.220;6.528;2024-03-02T01:32:39;8.00;99.90
52965;DHT22;42923;53.220;6.528;2024-03-02T01:35:05;7.90;99.90
52965;DHT22;42923;53.220;6.528;2024-03-02T01:37:32;7.90;99.90
52965;DHT22;42923;53.220;6.528;2024-03-02T01:39:58;8.50;99.90
52965;DHT22;42923;53.220;6.528;2024-03-02T01:42:24;8.00;99.90
52965;DHT22;42923;53.220;6.528;2024-03-02T01:44:50;8.00;99.90
52965;DHT22;42923;53.220;6.528;2024-03-02T01:47:16;8.00;99.90
52965;DHT22;42923;53.220;6.528;2024-03-02T01:49:42;7.90;99.90
52965;DHT22;42923;53.220;6.528;2024-03-02T01:52:08;8.00;99.90
52965;DHT22;42923;53.220;6.528;2024-03-02T01:54:33;8.00;99.90
52965;DHT22;42923;53.220;6.528;2024-03-02T01:57:00;8.00;99.90
52965;DHT22;42923;53.220;6.528;2024-03-02T01:59:26;8.00;99.90
52965;DHT22;42923;53.220;6.528;2024-03-02T02:01:52;7.90;99.90
52965;DHT22;42923;53.220;6.528;2024-03-02T02:04:18;8.00;99.90
52965;DHT22;42923;53.220;6.528;2024-03-02T02:06:46;8.00;99.90
52965;DHT22;42923;53.220;6.528;2024-03-02T02:09:12;8.70;99.90
52965;DHT22;42923;53.220;6.528;2024-03-02T02:11:38;8.10;99.90
52965;DHT22;42923;53.220;6.528;2024-03-02T02:14:04;8.10;99.90
52965;DHT22;42923;53.220;6.528;2024-03-02T02:16:31;8.10;99.90
52965;DHT22;42923;53.220;6.528;2024-03-02T02:18:57;8.20;99.90
52965;DHT22;42923;53.220;6.528;2024-03-02T02:21:23;8.30;99.90
52965;DHT22;42923;53.220;6.528;2024-03-02T02:23:48;8.20;99.90
52965;DHT22;42923;53.220;6.528;2024-03-02T02:26:15;8.30;99.90
52965;DHT22;42923;53.220;6.528;2024-03-02T02:28:41;8.20;99.90
52965;DHT22;42923;53.220;6.528;2024-03-02T02:31:14;8.30;99.90
52965;DHT22;42923;53.220;6.528;2024-03-02T02:33:40;8.30;99.90
52965;DHT22;42923;53.220;6.528;2024-03-02T02:36:06;8.20;99.90
52965;DHT22;42923;53.220;6.528;2024-03-02T02:38:33;8.20;99.90
52965;DHT22;42923;53.220;6.528;2024-03-02T02:40:59;8.10;99.90
52965;DHT22;42923;53.220;6.528;2024-03-02T02:43:25;8.20;99.90
52965;DHT22;42923;53.220;6.528;2024-03-02T02:45:51;8.20;99.90
52965;DHT22;42923;53.220;6.528;2024-03-02T02:48:17;9.10;99.90
52965;DHT22;42923;53.220;6.528;2024-03-02T02:50:42;8.30;99.90
52965;DHT22;42923;53.220;6.528;2024-03-02T02:53:08;8.90;99.90
52965;DHT22;42923;53.220;6.528;2024-03-02T02:55:35;8.40;99.90
52965;DHT22;42923;53.220;6.528;2024-03-02T02:58:06;8.40;99.90
52965;DHT22;42923;53.220;6.528;2024-03-02T03:00:32;8.50;99.90
52965;DHT22;42923;53.220;6.528;2024-03-02T03:02:58;8.50;99.90
52965;DHT22;42923;53.220;6.528;2024-03-02T03:05:23;8.60;99.90
52965;DHT22;42923;53.220;6.528;2024-03-02T03:07:49;8.60;99.90
52965;DHT22;42923;53.220;6.528;2024-03-02T03:10:16;8.60;99.90
52965;DHT22;42923;53.220;6.528;2024-03-02T03:12:43;8.60;99.90
52965;DHT22;42923;53.220;6.528;2024-03-02T03:15:09;9.00;99.90
52965;DHT22;42923;53.220;6.528;2024-03-02T03:17:35;8.70;99.90
52965;DHT22;42923;53.220;6.528;2024-03-02T03:20:02;8.70;99.90
52965;DHT22;42923;53.220;6.528;2024-03-02T03:22:32;8.80;99.90
52965;DHT22;42923;53.220;6.528;2024-03-02T03:24:58;8.80;99.90
52965;DHT22;42923;53.220;6.528;2024-03-02T03:27:25;8.70;99.90
52965;DHT22;42923;53.220;6.528;2024-03-02T03:29:50;8.70;99.90
52965;DHT22;42923;53.220;6.528;2024-03-02T03:32:16;8.70;99.90
52965;DHT22;42923;53.220;6.528;2024-03-02T03:34:42;8.80;99.90
52965;DHT22;42923;53.220;6.528;2024-03-02T03:37:08;8.70;99.90
52965;DHT22;42923;53.220;6.528;2024-03-02T03:39:34;8.70;99.90
52965;DHT22;42923;53.220;6.528;2024-03-02T03:42:01;8.70;99.90
52965;DHT22;42923;53.220;6.528;2024-03-02T03:44:27;8.60;99.90
52965;DHT22;42923;53.220;6.528;2024-03-02T03:46:52;9.70;99.90
52965;DHT22;42923;53.220;6.528;2024-03-02T03:49:18;8.60;99.90
52965;DHT22;42923;53.220;6.528;2024-03-02T03:51:44;8.60;99.90
52965;DHT22;42923;53.220;6.528;2024-03-02T03:54:09;8.70;99.90
52965;DHT22;42923;53.220;6.528;2024-03-02T03:56:37;8.50;99.90
52965;DHT22;42923;53.220;6.528;2024-03-02T03:59:03;8.40;99.90
52965;DHT22;42923;53.220;6.528;2024-03-02T04:01:30;8.40;99.90
52965;DHT22;42923;53.220;6.528;2024-03-02T04:03:57;8.40;99.90
52965;DHT22;42923;53.220;6.528;2024-03-02T04:06:23;8.50;99.90
52965;DHT22;42923;53.220;6.528;2024-03-02T04:08:49;8.50;99.90
52965;DHT22;42923;53.220;6.528;2024-03-02T04:11:15;8.40;99.90
52965;DHT22;42923;53.220;6.528;2024-03-02T04:13:40;8.50;99.90
52965;DHT22;42923;53.220;6.528;2024-03-02T04:16:06;8.50;99.90
52965;DHT22;42923;53.220;6.528;2024-03-02T04:18:32;8.80;99.90
52965;DHT22;42923;53.220;6.528;2024-03-02T04:20:58;8.50;99.90
52965;DHT22;42923;53.220;6.528;2024-03-02T04:23:27;9.00;99.90
52965;DHT22;42923;53.220;6.528;2024-03-02T04:25:52;8.50;99.90
52965;DHT22;42923;53.220;6.528;2024-03-02T04:28:18;9.50;99.90
52965;DHT22;42923;53.220;6.528;2024-03-02T04:30:44;8.50;99.90
52965;DHT22;42923;53.220;6.528;2024-03-02T04:33:09;9.10;99.90
52965;DHT22;42923;53.220;6.528;2024-03-02T04:35:38;8.50;99.90
52965;DHT22;42923;53.220;6.528;2024-03-02T04:38:04;8.50;99.90
52965;DHT22;42923;53.220;6.528;2024-03-02T04:40:30;8.50;99.90
52965;DHT22;42923;53.220;6.528;2024-03-02T04:42:55;8.50;99.90
52965;DHT22;42923;53.220;6.528;2024-03-02T04:45:23;8.80;99.90
52965;DHT22;42923;53.220;6.528;2024-03-02T04:47:49;8.50;99.90
52965;DHT22;42923;53.220;6.528;2024-03-02T04:50:14;8.50;99.90
52965;DHT22;42923;53.220;6.528;2024-03-02T04:52:40;8.50;99.90
52965;DHT22;42923;53.220;6.528;2024-03-02T04:55:06;8.50;99.90
52965;DHT22;42923;53.220;6.528;2024-03-02T04:57:50;8.40;99.90
52965;DHT22;42923;53.220;6.528;2024-03-02T05:00:16;8.50;99.90
52965;DHT22;42923;53.220;6.528;2024-03-02T05:02:42;8.50;99.90
52965;DHT22;42923;53.220;6.528;2024-03-02T05:05:08;9.00;99.90
52965;DHT22;42923;53.220;6.528;2024-03-02T05:07:34;8.40;99.90
52965;DHT22;42923;53.220;6.528;2024-03-02T05:09:59;8.40;99.90
52965;DHT22;42923;53.220;6.528;2024-03-02T05:12:25;8.40;99.90
52965;DHT22;42923;53.220;6.528;2024-03-02T05:15:13;8.30;99.90
52965;DHT22;42923;53.220;6.528;2024-03-02T05:17:40;8.40;99.90
52965;DHT22;42923;53.220;6.528;2024-03-02T05:20:09;8.40;99.90
52965;DHT22;42923;53.220;6.528;2024-03-02T05:22:35;8.30;99.90
52965;DHT22;42923;53.220;6.528;2024-03-02T05:25:02;8.30;99.90
52965;DHT22;42923;53.220;6.528;2024-03-02T05:27:28;8.40;99.90
52965;DHT22;42923;53.220;6.528;2024-03-02T05:29:54;8.30;99.90
52965;DHT22;42923;53.220;6.528;2024-03-02T05:32:19;9.10;99.90
52965;DHT22;42923;53.220;6.528;2024-03-02T05:34:45;8.30;99.90
52965;DHT22;42923;53.220;6.528;2024-03-02T05:37:11;8.30;99.90
52965;DHT22;42923;53.220;6.528;2024-03-02T05:39:37;8.30;99.90
52965;DHT22;42923;53.220;6.528;2024-03-02T05:42:03;8.40;99.90
52965;DHT22;42923;53.220;6.528;2024-03-02T05:44:29;9.60;99.90
52965;DHT22;42923;53.220;6.528;2024-03-02T05:46:55;8.40;99.90
52965;DHT22;42923;53.220;6.528;2024-03-02T05:49:21;8.40;99.90
52965;DHT22;42923;53.220;6.528;2024-03-02T05:51:47;8.40;99.90
52965;DHT22;42923;53.220;6.528;2024-03-02T05:54:12;8.40;99.90
52965;DHT22;42923;53.220;6.528;2024-03-02T05:56:38;8.30;99.90
52965;DHT22;42923;53.220;6.528;2024-03-02T05:59:04;8.30;99.90
52965;DHT22;42923;53.220;6.528;2024-03-02T06:01:42;8.30;99.90
52965;DHT22;42923;53.220;6.528;2024-03-02T06:04:08;8.30;99.90
52965;DHT22;42923;53.220;6.528;2024-03-02T06:06:34;8.40;99.90
52965;DHT22;42923;53.220;6.528;2024-03-02T06:09:04;9.30;99.90
52965;DHT22;42923;53.220;6.528;2024-03-02T06:11:34;8.40;99.90
52965;DHT22;42923;53.220;6.528;2024-03-02T06:14:00;8.30;99.90
52965;DHT22;42923;53.220;6.528;2024-03-02T06:16:25;8.30;99.90
52965;DHT22;42923;53.220;6.528;2024-03-02T06:18:51;8.30;99.90
52965;DHT22;42923;53.220;6.528;2024-03-02T06:21:17;8.60;99.90
52965;DHT22;42923;53.220;6.528;2024-03-02T06:23:44;8.30;99.90
52965;DHT22;42923;53.220;6.528;2024-03-02T06:26:09;8.30;99.90
52965;DHT22;42923;53.220;6.528;2024-03-02T06:28:35;8.30;99.90
52965;DHT22;42923;53.220;6.528;2024-03-02T06:31:02;8.30;99.90
52965;DHT22;42923;53.220;6.528;2024-03-02T06:33:28;8.30;99.90
52965;DHT22;42923;53.220;6.528;2024-03-02T06:35:54;8.30;99.90
52965;DHT22;42923;53.220;6.528;2024-03-02T06:38:20;8.20;99.90
52965;DHT22;42923;53.220;6.528;2024-03-02T06:40:45;8.90;99.90
52965;DHT22;42923;53.220;6.528;2024-03-02T06:43:11;8.20;99.90
52965;DHT22;42923;53.220;6.528;2024-03-02T06:45:37;8.20;99.90
52965;DHT22;42923;53.220;6.528;2024-03-02T06:48:03;8.20;99.90
52965;DHT22;42923;53.220;6.528;2024-03-02T06:50:29;8.20;99.90
52965;DHT22;42923;53.220;6.528;2024-03-02T06:52:55;8.20;99.90
52965;DHT22;42923;53.220;6.528;2024-03-02T06:55:23;8.20;99.90
52965;DHT22;42923;53.220;6.528;2024-03-02T06:57:52;8.10;99.90
52965;DHT22;42923;53.220;6.528;2024-03-02T07:00:18;8.10;99.90
52965;DHT22;42923;53.220;6.528;2024-03-02T07:02:46;8.10;99.90
52965;DHT22;42923;53.220;6.528;2024-03-02T07:05:12;8.20;99.90
52965;DHT22;42923;53.220;6.528;2024-03-02T07:07:38;8.30;99.90
52965;DHT22;42923;53.220;6.528;2024-03-02T07:10:04;8.40;99.90
52965;DHT22;42923;53.220;6.528;2024-03-02T07:12:30;8.40;99.90
52965;DHT22;42923;53.220;6.528;2024-03-02T07:14:57;8.40;99.90
52965;DHT22;42923;53.220;6.528;2024-03-02T07:17:29;8.30;99.90
52965;DHT22;42923;53.220;6.528;2024-03-02T07:19:55;8.30;99.90
52965;DHT22;42923;53.220;6.528;2024-03-02T07:22:21;8.20;99.90
52965;DHT22;42923;53.220;6.528;2024-03-02T07:24:47;9.30;99.90
52965;DHT22;42923;53.220;6.528;2024-03-02T07:27:13;8.20;99.90
52965;DHT22;42923;53.220;6.528;2024-03-02T07:29:39;9.00;99.90
52965;DHT22;42923;53.220;6.528;2024-03-02T07:32:06;8.20;99.90
52965;DHT22;42923;53.220;6.528;2024-03-02T07:34:32;9.20;99.90
52965;DHT22;42923;53.220;6.528;2024-03-02T07:36:57;8.30;99.90
52965;DHT22;42923;53.220;6.528;2024-03-02T07:39:23;8.40;99.90
52965;DHT22;42923;53.220;6.528;2024-03-02T07:41:49;8.40;99.90
52965;DHT22;42923;53.220;6.528;2024-03-02T07:44:15;8.50;99.90
52965;DHT22;42923;53.220;6.528;2024-03-02T07:46:42;8.70;99.90
52965;DHT22;42923;53.220;6.528;2024-03-02T07:49:08;8.80;99.90
52965;DHT22;42923;53.220;6.528;2024-03-02T07:51:34;9.40;99.90
52965;DHT22;42923;53.220;6.528;2024-03-02T07:54:00;8.90;99.90
52965;DHT22;42923;53.220;6.528;2024-03-02T07:56:25;9.00;99.90
52965;DHT22;42923;53.220;6.528;2024-03-02T07:58:51;9.10;99.90
52965;DHT22;42923;53.220;6.528;2024-03-02T08:01:17;9.20;99.90
52965;DHT22;42923;53.220;6.528;2024-03-02T08:03:44;9.30;99.90
52965;DHT22;42923;53.220;6.528;2024-03-02T08:06:17;10.60;99.90
52965;DHT22;42923;53.220;6.528;2024-03-02T08:08:43;9.60;99.90
52965;DHT22;42923;53.220;6.528;2024-03-02T08:11:08;9.70;99.90
52965;DHT22;42923;53.220;6.528;2024-03-02T08:13:34;9.70;99.90
52965;DHT22;42923;53.220;6.528;2024-03-02T08:16:00;9.80;99.90
52965;DHT22;42923;53.220;6.528;2024-03-02T08:18:28;9.80;99.90
52965;DHT22;42923;53.220;6.528;2024-03-02T08:20:54;9.80;99.90
52965;DHT22;42923;53.220;6.528;2024-03-02T08:23:21;9.80;99.90
52965;DHT22;42923;53.220;6.528;2024-03-02T08:25:47;9.90;99.90
52965;DHT22;42923;53.220;6.528;2024-03-02T08:28:12;9.90;99.90
52965;DHT22;42923;53.220;6.528;2024-03-02T08:30:38;11.00;99.90
52965;DHT22;42923;53.220;6.528;2024-03-02T08:33:04;9.90;99.90
52965;DHT22;42923;53.220;6.528;2024-03-02T08:35:31;10.20;99.90
52965;DHT22;42923;53.220;6.528;2024-03-02T08:38:04;10.40;99.90
52965;DHT22;42923;53.220;6.528;2024-03-02T08:40:30;10.70;99.90
52965;DHT22;42923;53.220;6.528;2024-03-02T08:42:56;10.80;99.90
52965;DHT22;42923;53.220;6.528;2024-03-02T08:45:22;10.80;99.90
52965;DHT22;42923;53.220;6.528;2024-03-02T08:47:48;10.70;99.90
52965;DHT22;42923;53.220;6.528;2024-03-02T08:50:13;10.70;99.90
52965;DHT22;42923;53.220;6.528;2024-03-02T08:52:39;10.50;99.90
52965;DHT22;42923;53.220;6.528;2024-03-02T08:55:06;11.00;99.90
52965;DHT22;42923;53.220;6.528;2024-03-02T08:57:33;10.30;99.90
52965;DHT22;42923;53.220;6.528;2024-03-02T08:59:59;10.50;99.90
52965;DHT22;42923;53.220;6.528;2024-03-02T09:02:25;10.20;99.90
52965;DHT22;42923;53.220;6.528;2024-03-02T09:04:51;10.20;99.90
52965;DHT22;42923;53.220;6.528;2024-03-02T09:07:17;10.20;99.90
52965;DHT22;42923;53.220;6.528;2024-03-02T09:09:43;10.20;99.90
52965;DHT22;42923;53.220;6.528;2024-03-02T09:12:09;10.20;99.90
52965;DHT22;42923;53.220;6.528;2024-03-02T09:14:35;11.90;99.90
52965;DHT22;42923;53.220;6.528;2024-03-02T09:17:02;10.30;99.90
52965;DHT22;42923;53.220;6.528;2024-03-02T09:19:29;10.30;99.90
52965;DHT22;42923;53.220;6.528;2024-03-02T09:21:54;10.40;99.90
52965;DHT22;42923;53.220;6.528;2024-03-02T09:24:21;10.70;99.90
52965;DHT22;42923;53.220;6.528;2024-03-02T09:26:47;10.50;99.90
52965;DHT22;42923;53.220;6.528;2024-03-02T09:29:13;11.30;99.90
52965;DHT22;42923;53.220;6.528;2024-03-02T09:31:40;10.50;99.90
52965;DHT22;42923;53.220;6.528;2024-03-02T09:34:07;10.40;99.90
52965;DHT22;42923;53.220;6.528;2024-03-02T09:36:32;10.30;99.90
52965;DHT22;42923;53.220;6.528;2024-03-02T09:38:58;11.90;99.90
52965;DHT22;42923;53.220;6.528;2024-03-02T09:41:24;10.20;99.90
52965;DHT22;42923;53.220;6.528;2024-03-02T09:43:50;10.10;99.90
52965;DHT22;42923;53.220;6.528;2024-03-02T09:46:16;10.10;99.90
52965;DHT22;42923;53.220;6.528;2024-03-02T09:48:44;10.10;99.90
52965;DHT22;42923;53.220;6.528;2024-03-02T09:51:10;10.10;99.90
52965;DHT22;42923;53.220;6.528;2024-03-02T09:53:37;10.20;99.90
52965;DHT22;42923;53.220;6.528;2024-03-02T09:56:03;10.30;99.90
52965;DHT22;42923;53.220;6.528;2024-03-02T09:58:30;10.50;99.90
52965;DHT22;42923;53.220;6.528;2024-03-02T10:00:56;11.40;99.90
52965;DHT22;42923;53.220;6.528;2024-03-02T10:03:26;10.90;99.90
52965;DHT22;42923;53.220;6.528;2024-03-02T10:05:54;11.30;99.90
52965;DHT22;42923;53.220;6.528;2024-03-02T10:08:20;11.70;99.90
52965;DHT22;42923;53.220;6.528;2024-03-02T10:10:46;11.80;99.90
52965;DHT22;42923;53.220;6.528;2024-03-02T10:13:13;11.80;99.90
52965;DHT22;42923;53.220;6.528;2024-03-02T10:15:40;11.90;99.90
52965;DHT22;42923;53.220;6.528;2024-03-02T10:18:12;12.10;99.90
52965;DHT22;42923;53.220;6.528;2024-03-02T10:20:40;11.80;99.90
52965;DHT22;42923;53.220;6.528;2024-03-02T10:23:15;11.50;99.90
52965;DHT22;42923;53.220;6.528;2024-03-02T10:25:43;11.30;99.90
52965;DHT22;42923;53.220;6.528;2024-03-02T10:28:09;11.40;99.90
52965;DHT22;42923;53.220;6.528;2024-03-02T10:30:35;11.30;99.90
52965;DHT22;42923;53.220;6.528;2024-03-02T10:33:02;11.40;99.90
52965;DHT22;42923;53.220;6.528;2024-03-02T10:35:28;11.60;99.90
52965;DHT22;42923;53.220;6.528;2024-03-02T10:37:54;11.60;99.90
52965;DHT22;42923;53.220;6.528;2024-03-02T10:40:23;12.10;99.90
52965;DHT22;42923;53.220;6.528;2024-03-02T10:42:52;11.60;99.90
52965;DHT22;42923;53.220;6.528;2024-03-02T10:45:19;11.70;99.90
52965;DHT22;42923;53.220;6.528;2024-03-02T10:47:47;12.50;99.90
52965;DHT22;42923;53.220;6.528;2024-03-02T10:50:13;12.30;99.90
52965;DHT22;42923;53.220;6.528;2024-03-02T10:52:39;12.40;99.90
52965;DHT22;42923;53.220;6.528;2024-03-02T10:55:06;12.70;99.90
52965;DHT22;42923;53.220;6.528;2024-03-02T10:57:50;12.60;99.90
52965;DHT22;42923;53.220;6.528;2024-03-02T11:00:16;12.90;99.90
52965;DHT22;42923;53.220;6.528;2024-03-02T11:02:52;12.80;99.90
52965;DHT22;42923;53.220;6.528;2024-03-02T11:05:27;12.70;99.90
52965;DHT22;42923;53.220;6.528;2024-03-02T11:07:57;12.90;99.90
52965;DHT22;42923;53.220;6.528;2024-03-02T11:10:25;13.50;99.90
52965;DHT22;42923;53.220;6.528;2024-03-02T11:13:00;14.10;99.90
52965;DHT22;42923;53.220;6.528;2024-03-02T11:15:27;14.60;99.90
52965;DHT22;42923;53.220;6.528;2024-03-02T11:17:54;14.70;99.90
52965;DHT22;42923;53.220;6.528;2024-03-02T11:20:20;14.90;99.90
52965;DHT22;42923;53.220;6.528;2024-03-02T11:22:47;15.10;99.90
52965;DHT22;42923;53.220;6.528;2024-03-02T11:25:26;16.00;99.90
52965;DHT22;42923;53.220;6.528;2024-03-02T11:33:25;14.80;99.90
52965;DHT22;42923;53.220;6.528;2024-03-02T11:35:52;14.60;99.90
52965;DHT22;42923;53.220;6.528;2024-03-02T11:38:18;15.50;99.90
52965;DHT22;42923;53.220;6.528;2024-03-02T11:40:44;14.50;99.90
52965;DHT22;42923;53.220;6.528;2024-03-02T11:43:11;14.40;99.90
52965;DHT22;42923;53.220;6.528;2024-03-02T11:45:37;14.80;99.90
52965;DHT22;42923;53.220;6.528;2024-03-02T11:48:09;15.10;99.90
52965;DHT22;42923;53.220;6.528;2024-03-02T11:50:49;15.80;99.90
52965;DHT22;42923;53.220;6.528;2024-03-02T11:53:15;15.50;99.90
52965;DHT22;42923;53.220;6.528;2024-03-02T11:55:41;15.40;99.90
52965;DHT22;42923;53.220;6.528;2024-03-02T11:58:09;15.70;99.90
52965;DHT22;42923;53.220;6.528;2024-03-02T12:00:35;16.00;99.90
52965;DHT22;42923;53.220;6.528;2024-03-02T12:03:03;15.50;99.90
52965;DHT22;42923;53.220;6.528;2024-03-02T12:05:30;15.50;99.90
52965;DHT22;42923;53.220;6.528;2024-03-02T12:07:57;15.30;99.90
52965;DHT22;42923;53.220;6.528;2024-03-02T12:10:23;14.90;99.90
52965;DHT22;42923;53.220;6.528;2024-03-02T12:12:58;15.80;99.90
52965;DHT22;42923;53.220;6.528;2024-03-02T12:15:28;14.50;99.90
52965;DHT22;42923;53.220;6.528;2024-03-02T12:17:59;14.80;99.90
52965;DHT22;42923;53.220;6.528;2024-03-02T12:20:26;15.00;99.90
52965;DHT22;42923;53.220;6.528;2024-03-02T12:22:53;14.90;99.90
52965;DHT22;42923;53.220;6.528;2024-03-02T12:25:20;14.90;99.90
52965;DHT22;42923;53.220;6.528;2024-03-02T12:27:47;15.30;99.90
52965;DHT22;42923;53.220;6.528;2024-03-02T12:30:13;15.40;99.90
52965;DHT22;42923;53.220;6.528;2024-03-02T12:32:40;15.10;99.90
52965;DHT22;42923;53.220;6.528;2024-03-02T12:35:06;14.80;99.90
52965;DHT22;42923;53.220;6.528;2024-03-02T12:37:32;14.60;99.90
52965;DHT22;42923;53.220;6.528;2024-03-02T12:39:59;14.60;99.90
52965;DHT22;42923;53.220;6.528;2024-03-02T12:42:25;14.60;99.90
52965;DHT22;42923;53.220;6.528;2024-03-02T12:44:53;14.10;99.90
52965;DHT22;42923;53.220;6.528;2024-03-02T12:47:20;14.60;99.90
52965;DHT22;42923;53.220;6.528;2024-03-02T12:49:46;15.00;99.90
52965;DHT22;42923;53.220;6.528;2024-03-02T12:52:13;15.60;99.90
52965;DHT22;42923;53.220;6.528;2024-03-02T12:54:38;16.90;99.90
52965;DHT22;42923;53.220;6.528;2024-03-02T12:57:04;16.10;99.90
52965;DHT22;42923;53.220;6.528;2024-03-02T12:59:30;16.20;99.90
52965;DHT22;42923;53.220;6.528;2024-03-02T13:01:56;16.70;99.90
52965;DHT22;42923;53.220;6.528;2024-03-02T13:04:24;16.70;99.90
52965;DHT22;42923;53.220;6.528;2024-03-02T13:06:51;16.70;99.90
52965;DHT22;42923;53.220;6.528;2024-03-02T13:09:18;17.00;99.90
52965;DHT22;42923;53.220;6.528;2024-03-02T13:11:43;17.00;99.50
52965;DHT22;42923;53.220;6.528;2024-03-02T13:14:10;17.40;99.60
52965;DHT22;42923;53.220;6.528;2024-03-02T13:16:40;17.20;98.40
52965;DHT22;42923;53.220;6.528;2024-03-02T13:19:12;17.10;97.30
52965;DHT22;42923;53.220;6.528;2024-03-02T13:21:38;17.00;97.20
52965;DHT22;42923;53.220;6.528;2024-03-02T13:24:04;16.90;97.00
52965;DHT22;42923;53.220;6.528;2024-03-02T13:26:30;16.80;97.10
52965;DHT22;42923;53.220;6.528;2024-03-02T13:28:56;16.90;97.00
52965;DHT22;42923;53.220;6.528;2024-03-02T13:31:22;15.60;97.20
52965;DHT22;42923;53.220;6.528;2024-03-02T13:33:48;15.10;97.70
52965;DHT22;42923;53.220;6.528;2024-03-02T13:36:14;14.90;98.70
52965;DHT22;42923;53.220;6.528;2024-03-02T13:38:39;15.10;99.10
52965;DHT22;42923;53.220;6.528;2024-03-02T13:41:05;15.00;98.90
52965;DHT22;42923;53.220;6.528;2024-03-02T13:43:31;15.90;99.90
52965;DHT22;42923;53.220;6.528;2024-03-02T13:46:02;15.90;99.90
52965;DHT22;42923;53.220;6.528;2024-03-02T13:48:28;16.00;99.90
52965;DHT22;42923;53.220;6.528;2024-03-02T13:50:54;16.50;99.40
52965;DHT22;42923;53.220;6.528;2024-03-02T13:53:20;16.80;99.00
52965;DHT22;42923;53.220;6.528;2024-03-02T13:55:46;17.10;98.50
52965;DHT22;42923;53.220;6.528;2024-03-02T13:58:12;17.20;98.10
52965;DHT22;42923;53.220;6.528;2024-03-02T14:00:38;16.90;98.40
52965;DHT22;42923;53.220;6.528;2024-03-02T14:03:05;16.90;98.50
52965;DHT22;42923;53.220;6.528;2024-03-02T14:05:31;16.10;98.20
52965;DHT22;42923;53.220;6.528;2024-03-02T14:07:57;15.80;98.20
52965;DHT22;42923;53.220;6.528;2024-03-02T14:10:25;15.40;98.30
52965;DHT22;42923;53.220;6.528;2024-03-02T14:12:51;15.40;99.40
52965;DHT22;42923;53.220;6.528;2024-03-02T14:15:17;15.80;99.70
52965;DHT22;42923;53.220;6.528;2024-03-02T14:17:42;16.60;99.90
52965;DHT22;42923;53.220;6.528;2024-03-02T14:20:08;16.90;99.20
52965;DHT22;42923;53.220;6.528;2024-03-02T14:22:37;17.00;98.20
52965;DHT22;42923;53.220;6.528;2024-03-02T14:25:03;17.10;97.90
52965;DHT22;42923;53.220;6.528;2024-03-02T14:27:29;17.00;97.80
52965;DHT22;42923;53.220;6.528;2024-03-02T14:29:55;16.70;98.00
52965;DHT22;42923;53.220;6.528;2024-03-02T14:32:20;16.50;97.20
52965;DHT22;42923;53.220;6.528;2024-03-02T14:34:46;16.20;97.00
52965;DHT22;42923;53.220;6.528;2024-03-02T14:37:13;16.20;96.70
52965;DHT22;42923;53.220;6.528;2024-03-02T14:39:39;15.80;97.00
52965;DHT22;42923;53.220;6.528;2024-03-02T14:42:05;15.60;98.50
52965;DHT22;42923;53.220;6.528;2024-03-02T14:44:32;15.40;97.80
52965;DHT22;42923;53.220;6.528;2024-03-02T14:46:58;15.30;97.70
52965;DHT22;42923;53.220;6.528;2024-03-02T14:49:24;15.60;98.00
52965;DHT22;42923;53.220;6.528;2024-03-02T14:51:50;15.20;97.40
52965;DHT22;42923;53.220;6.528;2024-03-02T14:54:16;15.00;97.10
52965;DHT22;42923;53.220;6.528;2024-03-02T14:56:41;14.90;97.50
52965;DHT22;42923;53.220;6.528;2024-03-02T14:59:07;14.70;97.70
52965;DHT22;42923;53.220;6.528;2024-03-02T15:01:33;15.60;98.30
52965;DHT22;42923;53.220;6.528;2024-03-02T15:03:58;14.70;97.50
52965;DHT22;42923;53.220;6.528;2024-03-02T15:06:24;14.80;97.50
52965;DHT22;42923;53.220;6.528;2024-03-02T15:08:50;14.80;98.00
52965;DHT22;42923;53.220;6.528;2024-03-02T15:11:16;14.70;98.40
52965;DHT22;42923;53.220;6.528;2024-03-02T15:13:42;14.70;98.30
52965;DHT22;42923;53.220;6.528;2024-03-02T15:16:07;14.60;98.20
52965;DHT22;42923;53.220;6.528;2024-03-02T15:18:33;14.70;98.60
52965;DHT22;42923;53.220;6.528;2024-03-02T15:21:00;14.40;99.40
52965;DHT22;42923;53.220;6.528;2024-03-02T15:23:26;15.00;99.60
52965;DHT22;42923;53.220;6.528;2024-03-02T15:25:51;14.40;99.60
52965;DHT22;42923;53.220;6.528;2024-03-02T15:28:17;14.30;99.90
52965;DHT22;42923;53.220;6.528;2024-03-02T15:30:44;14.30;99.90
52965;DHT22;42923;53.220;6.528;2024-03-02T15:33:09;15.20;99.90
52965;DHT22;42923;53.220;6.528;2024-03-02T15:35:35;15.00;99.90
52965;DHT22;42923;53.220;6.528;2024-03-02T15:38:01;14.20;99.90
52965;DHT22;42923;53.220;6.528;2024-03-02T15:40:26;14.40;99.90
52965;DHT22;42923;53.220;6.528;2024-03-02T15:42:52;14.60;99.90
52965;DHT22;42923;53.220;6.528;2024-03-02T15:45:20;14.20;99.90
52965;DHT22;42923;53.220;6.528;2024-03-02T15:47:45;14.30;99.90